sensor_id;sensor_type;location;lat;lon;timestamp;P1;durP1;ratioP1;P2;durP2;ratioP2
42600;SDS011;28229;48.856;9.088;2022-08-14T00:02:01;3.37;;;2.87;;
42600;SDS011;28229;48.856;9.088;2022-08-14T00:04:29;3.47;;;3.17;;
42600;SDS011;28229;48.856;9.088;2022-08-14T00:06:56;3.30;;;3.00;;
42600;SDS011;28229;48.856;9.088;2022-08-14T00:09:22;3.43;;;3.13;;
42600;SDS011;28229;48.856;9.088;2022-08-14T00:11:48;3.50;;;3.20;;
42600;SDS011;28229;48.856;9.088;2022-08-14T00:14:15;3.50;;;3.20;;
42600;SDS011;28229;48.856;9.088;2022-08-14T00:16:41;3.83;;;3.17;;
42600;SDS011;28229;48.856;9.088;2022-08-14T00:19:07;4.67;;;3.30;;
42600;SDS011;28229;48.856;9.088;2022-08-14T00:21:34;5.77;;;3.60;;
42600;SDS011;28229;48.856;9.088;2022-08-14T00:24:01;3.17;;;2.97;;
42600;SDS011;28229;48.856;9.088;2022-08-14T00:26:28;3.13;;;2.93;;
42600;SDS011;28229;48.856;9.088;2022-08-14T00:28:54;3.80;;;3.40;;
42600;SDS011;28229;48.856;9.088;2022-08-14T00:31:21;3.50;;;3.10;;
42600;SDS011;28229;48.856;9.088;2022-08-14T00:33:47;4.03;;;3.30;;
42600;SDS011;28229;48.856;9.088;2022-08-14T00:36:14;3.40;;;3.10;;
42600;SDS011;28229;48.856;9.088;2022-08-14T00:38:39;3.67;;;3.37;;
42600;SDS011;28229;48.856;9.088;2022-08-14T00:41:06;3.60;;;3.30;;
42600;SDS011;28229;48.856;9.088;2022-08-14T00:43:33;3.77;;;3.37;;
42600;SDS011;28229;48.856;9.088;2022-08-14T00:46:01;4.00;;;3.40;;
42600;SDS011;28229;48.856;9.088;2022-08-14T00:48:29;5.03;;;3.50;;
42600;SDS011;28229;48.856;9.088;2022-08-14T00:50:55;3.67;;;3.40;;
42600;SDS011;28229;48.856;9.088;2022-08-14T00:53:21;4.00;;;3.60;;
42600;SDS011;28229;48.856;9.088;2022-08-14T00:55:48;5.40;;;3.97;;
42600;SDS011;28229;48.856;9.088;2022-08-14T00:58:15;4.70;;;3.73;;
42600;SDS011;28229;48.856;9.088;2022-08-14T01:00:58;3.30;;;3.00;;
42600;SDS011;28229;48.856;9.088;2022-08-14T01:03:36;3.50;;;3.20;;
42600;SDS011;28229;48.856;9.088;2022-08-14T01:06:08;3.37;;;3.13;;
42600;SDS011;28229;48.856;9.088;2022-08-14T01:08:40;4.13;;;3.43;;
42600;SDS011;28229;48.856;9.088;2022-08-14T01:11:08;3.27;;;2.97;;
42600;SDS011;28229;48.856;9.088;2022-08-14T01:13:43;3.40;;;3.20;;
42600;SDS011;28229;48.856;9.088;2022-08-14T01:16:11;3.47;;;3.17;;
42600;SDS011;28229;48.856;9.088;2022-08-14T01:18:39;3.60;;;3.00;;
42600;SDS011;28229;48.856;9.088;2022-08-14T01:21:36;3.47;;;3.20;;
42600;SDS011;28229;48.856;9.088;2022-08-14T01:24:05;3.13;;;2.93;;
42600;SDS011;28229;48.856;9.088;2022-08-14T01:26:32;3.40;;;3.10;;
42600;SDS011;28229;48.856;9.088;2022-08-14T01:29:00;3.60;;;3.30;;
42600;SDS011;28229;48.856;9.088;2022-08-14T01:31:29;3.97;;;3.60;;
42600;SDS011;28229;48.856;9.088;2022-08-14T01:33:57;3.97;;;3.50;;
42600;SDS011;28229;48.856;9.088;2022-08-14T01:36:27;3.70;;;3.40;;
42600;SDS011;28229;48.856;9.088;2022-08-14T01:38:58;3.70;;;3.40;;
42600;SDS011;28229;48.856;9.088;2022-08-14T01:41:25;4.33;;;3.43;;
42600;SDS011;28229;48.856;9.088;2022-08-14T01:43:56;4.20;;;3.03;;
42600;SDS011;28229;48.856;9.088;2022-08-14T01:46:28;3.73;;;3.43;;
42600;SDS011;28229;48.856;9.088;2022-08-14T01:48:56;4.03;;;3.23;;
42600;SDS011;28229;48.856;9.088;2022-08-14T01:51:23;4.17;;;3.33;;
42600;SDS011;28229;48.856;9.088;2022-08-14T01:53:57;3.47;;;3.17;;
42600;SDS011;28229;48.856;9.088;2022-08-14T01:56:30;3.53;;;3.23;;
42600;SDS011;28229;48.856;9.088;2022-08-14T01:59:04;3.60;;;3.30;;
42600;SDS011;28229;48.856;9.088;2022-08-14T02:01:34;3.37;;;3.07;;
42600;SDS011;28229;48.856;9.088;2022-08-14T02:04:04;3.97;;;3.43;;
42600;SDS011;28229;48.856;9.088;2022-08-14T02:06:30;3.60;;;3.30;;
42600;SDS011;28229;48.856;9.088;2022-08-14T02:08:56;3.50;;;3.20;;
42600;SDS011;28229;48.856;9.088;2022-08-14T02:11:24;3.70;;;3.40;;
42600;SDS011;28229;48.856;9.088;2022-08-14T02:13:55;3.53;;;3.23;;
42600;SDS011;28229;48.856;9.088;2022-08-14T02:16:28;3.60;;;3.30;;
42600;SDS011;28229;48.856;9.088;2022-08-14T02:18:59;3.63;;;3.33;;
42600;SDS011;28229;48.856;9.088;2022-08-14T02:21:27;4.23;;;3.60;;
42600;SDS011;28229;48.856;9.088;2022-08-14T02:23:56;3.83;;;3.53;;
42600;SDS011;28229;48.856;9.088;2022-08-14T02:26:23;3.77;;;3.33;;
42600;SDS011;28229;48.856;9.088;2022-08-14T02:28:55;3.97;;;3.63;;
42600;SDS011;28229;48.856;9.088;2022-08-14T02:31:29;3.53;;;3.27;;
42600;SDS011;28229;48.856;9.088;2022-08-14T02:34:04;4.70;;;3.57;;
42600;SDS011;28229;48.856;9.088;2022-08-14T02:36:38;3.50;;;3.20;;
42600;SDS011;28229;48.856;9.088;2022-08-14T02:39:05;4.03;;;3.37;;
42600;SDS011;28229;48.856;9.088;2022-08-14T02:41:32;3.43;;;3.20;;
42600;SDS011;28229;48.856;9.088;2022-08-14T02:44:00;4.53;;;3.60;;
42600;SDS011;28229;48.856;9.088;2022-08-14T02:46:28;3.87;;;3.57;;
42600;SDS011;28229;48.856;9.088;2022-08-14T02:48:58;3.40;;;3.20;;
42600;SDS011;28229;48.856;9.088;2022-08-14T02:51:24;3.73;;;3.43;;
42600;SDS011;28229;48.856;9.088;2022-08-14T02:53:51;3.40;;;3.10;;
42600;SDS011;28229;48.856;9.088;2022-08-14T02:56:18;3.70;;;3.40;;
42600;SDS011;28229;48.856;9.088;2022-08-14T02:58:49;3.70;;;3.40;;
42600;SDS011;28229;48.856;9.088;2022-08-14T03:01:17;4.00;;;3.70;;
42600;SDS011;28229;48.856;9.088;2022-08-14T03:03:45;6.83;;;6.23;;
42600;SDS011;28229;48.856;9.088;2022-08-14T03:06:13;6.37;;;4.97;;
42600;SDS011;28229;48.856;9.088;2022-08-14T03:08:40;4.40;;;4.10;;
42600;SDS011;28229;48.856;9.088;2022-08-14T03:11:09;5.33;;;3.97;;
42600;SDS011;28229;48.856;9.088;2022-08-14T03:13:38;3.70;;;3.40;;
42600;SDS011;28229;48.856;9.088;2022-08-14T03:16:06;3.53;;;3.23;;
42600;SDS011;28229;48.856;9.088;2022-08-14T03:18:36;3.20;;;2.90;;
42600;SDS011;28229;48.856;9.088;2022-08-14T03:21:07;3.90;;;3.13;;
42600;SDS011;28229;48.856;9.088;2022-08-14T03:23:38;3.60;;;3.30;;
42600;SDS011;28229;48.856;9.088;2022-08-14T03:26:09;3.60;;;3.30;;
42600;SDS011;28229;48.856;9.088;2022-08-14T03:28:38;3.53;;;3.23;;
42600;SDS011;28229;48.856;9.088;2022-08-14T03:31:07;3.23;;;2.93;;
42600;SDS011;28229;48.856;9.088;2022-08-14T03:33:34;3.77;;;3.47;;
42600;SDS011;28229;48.856;9.088;2022-08-14T03:36:06;3.87;;;3.57;;
42600;SDS011;28229;48.856;9.088;2022-08-14T03:38:37;3.30;;;3.00;;
42600;SDS011;28229;48.856;9.088;2022-08-14T03:41:08;3.23;;;3.03;;
42600;SDS011;28229;48.856;9.088;2022-08-14T03:43:44;3.23;;;3.03;;
42600;SDS011;28229;48.856;9.088;2022-08-14T03:46:15;3.40;;;3.20;;
42600;SDS011;28229;48.856;9.088;2022-08-14T03:48:43;4.20;;;3.60;;
42600;SDS011;28229;48.856;9.088;2022-08-14T03:51:10;3.77;;;3.20;;
42600;SDS011;28229;48.856;9.088;2022-08-14T03:53:42;3.50;;;3.20;;
42600;SDS011;28229;48.856;9.088;2022-08-14T03:56:10;3.30;;;3.10;;
42600;SDS011;28229;48.856;9.088;2022-08-14T03:58:58;3.23;;;3.03;;
42600;SDS011;28229;48.856;9.088;2022-08-14T04:01:28;3.50;;;3.30;;
42600;SDS011;28229;48.856;9.088;2022-08-14T04:03:55;3.63;;;3.10;;
42600;SDS011;28229;48.856;9.088;2022-08-14T04:06:34;3.83;;;3.53;;
42600;SDS011;28229;48.856;9.088;2022-08-14T04:09:03;3.70;;;3.50;;
42600;SDS011;28229;48.856;9.088;2022-08-14T04:11:31;4.63;;;3.23;;
42600;SDS011;28229;48.856;9.088;2022-08-14T04:13:57;3.90;;;3.60;;
42600;SDS011;28229;48.856;9.088;2022-08-14T04:16:25;3.87;;;3.50;;
42600;SDS011;28229;48.856;9.088;2022-08-14T04:18:53;4.17;;;3.77;;
42600;SDS011;28229;48.856;9.088;2022-08-14T04:21:21;4.40;;;4.00;;
42600;SDS011;28229;48.856;9.088;2022-08-14T04:23:49;5.00;;;3.70;;
42600;SDS011;28229;48.856;9.088;2022-08-14T04:26:17;3.93;;;3.60;;
42600;SDS011;28229;48.856;9.088;2022-08-14T04:28:46;4.07;;;3.60;;
42600;SDS011;28229;48.856;9.088;2022-08-14T04:31:14;4.03;;;3.73;;
42600;SDS011;28229;48.856;9.088;2022-08-14T04:33:41;4.17;;;3.87;;
42600;SDS011;28229;48.856;9.088;2022-08-14T04:36:07;3.90;;;3.60;;
42600;SDS011;28229;48.856;9.088;2022-08-14T04:38:33;3.60;;;3.40;;
42600;SDS011;28229;48.856;9.088;2022-08-14T04:41:18;4.73;;;3.70;;
42600;SDS011;28229;48.856;9.088;2022-08-14T04:44:03;5.43;;;3.40;;
42600;SDS011;28229;48.856;9.088;2022-08-14T04:46:30;3.87;;;3.57;;
42600;SDS011;28229;48.856;9.088;2022-08-14T04:48:58;3.90;;;3.60;;
42600;SDS011;28229;48.856;9.088;2022-08-14T04:51:24;3.70;;;3.40;;
42600;SDS011;28229;48.856;9.088;2022-08-14T04:53:52;4.30;;;3.47;;
42600;SDS011;28229;48.856;9.088;2022-08-14T04:56:21;4.20;;;3.80;;
42600;SDS011;28229;48.856;9.088;2022-08-14T04:58:49;3.50;;;3.30;;
42600;SDS011;28229;48.856;9.088;2022-08-14T05:01:15;3.53;;;3.33;;
42600;SDS011;28229;48.856;9.088;2022-08-14T05:03:42;3.60;;;3.30;;
42600;SDS011;28229;48.856;9.088;2022-08-14T05:06:09;4.10;;;3.70;;
42600;SDS011;28229;48.856;9.088;2022-08-14T05:08:36;3.43;;;3.13;;
42600;SDS011;28229;48.856;9.088;2022-08-14T05:11:04;3.70;;;3.40;;
42600;SDS011;28229;48.856;9.088;2022-08-14T05:13:32;5.53;;;3.40;;
42600;SDS011;28229;48.856;9.088;2022-08-14T05:16:00;3.70;;;3.40;;
42600;SDS011;28229;48.856;9.088;2022-08-14T05:18:27;3.97;;;3.67;;
42600;SDS011;28229;48.856;9.088;2022-08-14T05:20:57;4.33;;;3.33;;
42600;SDS011;28229;48.856;9.088;2022-08-14T05:23:25;3.10;;;2.90;;
42600;SDS011;28229;48.856;9.088;2022-08-14T05:25:55;3.90;;;3.50;;
42600;SDS011;28229;48.856;9.088;2022-08-14T05:28:38;4.87;;;3.33;;
42600;SDS011;28229;48.856;9.088;2022-08-14T05:31:07;3.70;;;3.40;;
42600;SDS011;28229;48.856;9.088;2022-08-14T05:33:34;3.70;;;3.40;;
42600;SDS011;28229;48.856;9.088;2022-08-14T05:36:05;3.33;;;3.10;;
42600;SDS011;28229;48.856;9.088;2022-08-14T05:38:33;3.47;;;3.17;;
42600;SDS011;28229;48.856;9.088;2022-08-14T05:41:06;3.50;;;3.20;;
42600;SDS011;28229;48.856;9.088;2022-08-14T05:43:37;3.70;;;3.40;;
42600;SDS011;28229;48.856;9.088;2022-08-14T05:46:05;3.40;;;3.10;;
42600;SDS011;28229;48.856;9.088;2022-08-14T05:48:31;3.53;;;3.23;;
42600;SDS011;28229;48.856;9.088;2022-08-14T05:50:57;4.20;;;3.40;;
42600;SDS011;28229;48.856;9.088;2022-08-14T05:53:23;3.87;;;3.30;;
42600;SDS011;28229;48.856;9.088;2022-08-14T05:55:51;3.60;;;3.23;;
42600;SDS011;28229;48.856;9.088;2022-08-14T05:58:17;3.10;;;2.80;;
42600;SDS011;28229;48.856;9.088;2022-08-14T06:00:44;3.70;;;3.50;;
42600;SDS011;28229;48.856;9.088;2022-08-14T06:03:12;4.40;;;3.90;;
42600;SDS011;28229;48.856;9.088;2022-08-14T06:05:42;5.33;;;3.70;;
42600;SDS011;28229;48.856;9.088;2022-08-14T06:08:42;4.47;;;3.50;;
42600;SDS011;28229;48.856;9.088;2022-08-14T06:11:02;4.97;;;3.83;;
42600;SDS011;28229;48.856;9.088;2022-08-14T06:13:31;3.90;;;3.53;;
42600;SDS011;28229;48.856;9.088;2022-08-14T06:15:58;3.73;;;3.40;;
42600;SDS011;28229;48.856;9.088;2022-08-14T06:18:24;3.73;;;3.43;;
42600;SDS011;28229;48.856;9.088;2022-08-14T06:20:50;3.83;;;3.53;;
42600;SDS011;28229;48.856;9.088;2022-08-14T06:23:15;4.37;;;3.90;;
42600;SDS011;28229;48.856;9.088;2022-08-14T06:25:41;4.03;;;3.73;;
42600;SDS011;28229;48.856;9.088;2022-08-14T06:28:18;4.13;;;3.73;;
42600;SDS011;28229;48.856;9.088;2022-08-14T06:30:47;3.60;;;3.30;;
42600;SDS011;28229;48.856;9.088;2022-08-14T06:33:13;4.33;;;3.00;;
42600;SDS011;28229;48.856;9.088;2022-08-14T06:35:40;4.67;;;3.07;;
42600;SDS011;28229;48.856;9.088;2022-08-14T06:38:06;4.23;;;3.50;;
42600;SDS011;28229;48.856;9.088;2022-08-14T06:40:33;3.97;;;3.50;;
42600;SDS011;28229;48.856;9.088;2022-08-14T06:43:05;3.70;;;3.40;;
42600;SDS011;28229;48.856;9.088;2022-08-14T06:45:35;3.53;;;3.30;;
42600;SDS011;28229;48.856;9.088;2022-08-14T06:48:03;4.80;;;4.27;;
42600;SDS011;28229;48.856;9.088;2022-08-14T06:50:29;3.30;;;3.10;;
42600;SDS011;28229;48.856;9.088;2022-08-14T06:52:58;3.37;;;3.07;;
42600;SDS011;28229;48.856;9.088;2022-08-14T06:55:24;2.80;;;2.60;;
42600;SDS011;28229;48.856;9.088;2022-08-14T06:57:51;3.00;;;2.80;;
42600;SDS011;28229;48.856;9.088;2022-08-14T07:00:18;3.00;;;2.70;;
42600;SDS011;28229;48.856;9.088;2022-08-14T07:02:49;2.60;;;2.40;;
42600;SDS011;28229;48.856;9.088;2022-08-14T07:05:34;2.60;;;2.40;;
42600;SDS011;28229;48.856;9.088;2022-08-14T07:08:19;2.50;;;2.30;;
42600;SDS011;28229;48.856;9.088;2022-08-14T07:10:49;2.67;;;2.50;;
42600;SDS011;28229;48.856;9.088;2022-08-14T07:13:16;2.60;;;2.40;;
42600;SDS011;28229;48.856;9.088;2022-08-14T07:15:46;2.90;;;2.60;;
42600;SDS011;28229;48.856;9.088;2022-08-14T07:18:21;2.70;;;2.40;;
42600;SDS011;28229;48.856;9.088;2022-08-14T07:20:49;2.73;;;2.53;;
42600;SDS011;28229;48.856;9.088;2022-08-14T07:23:15;2.70;;;2.57;;
42600;SDS011;28229;48.856;9.088;2022-08-14T07:25:42;2.50;;;2.37;;
42600;SDS011;28229;48.856;9.088;2022-08-14T07:30:34;2.70;;;2.50;;
42600;SDS011;28229;48.856;9.088;2022-08-14T07:33:01;2.97;;;2.67;;
42600;SDS011;28229;48.856;9.088;2022-08-14T07:35:28;2.73;;;2.47;;
42600;SDS011;28229;48.856;9.088;2022-08-14T07:37:54;3.03;;;2.57;;
42600;SDS011;28229;48.856;9.088;2022-08-14T07:40:20;2.60;;;2.40;;
42600;SDS011;28229;48.856;9.088;2022-08-14T07:42:46;2.40;;;2.20;;
42600;SDS011;28229;48.856;9.088;2022-08-14T07:45:12;2.50;;;2.30;;
42600;SDS011;28229;48.856;9.088;2022-08-14T07:47:39;2.37;;;2.27;;
42600;SDS011;28229;48.856;9.088;2022-08-14T07:52:33;2.83;;;2.40;;
42600;SDS011;28229;48.856;9.088;2022-08-14T07:54:59;2.33;;;2.13;;
42600;SDS011;28229;48.856;9.088;2022-08-14T07:57:25;2.37;;;2.20;;
42600;SDS011;28229;48.856;9.088;2022-08-14T07:59:52;4.63;;;2.30;;
42600;SDS011;28229;48.856;9.088;2022-08-14T08:02:18;2.50;;;2.30;;
42600;SDS011;28229;48.856;9.088;2022-08-14T08:04:47;2.90;;;2.40;;
42600;SDS011;28229;48.856;9.088;2022-08-14T08:07:15;2.47;;;2.37;;
42600;SDS011;28229;48.856;9.088;2022-08-14T08:09:42;2.20;;;2.10;;
42600;SDS011;28229;48.856;9.088;2022-08-14T08:12:15;2.00;;;1.90;;
42600;SDS011;28229;48.856;9.088;2022-08-14T08:14:43;3.07;;;2.17;;
42600;SDS011;28229;48.856;9.088;2022-08-14T08:17:09;2.10;;;2.00;;
42600;SDS011;28229;48.856;9.088;2022-08-14T08:19:35;2.40;;;2.20;;
42600;SDS011;28229;48.856;9.088;2022-08-14T08:22:02;2.33;;;2.20;;
42600;SDS011;28229;48.856;9.088;2022-08-14T08:24:28;2.30;;;2.10;;
42600;SDS011;28229;48.856;9.088;2022-08-14T08:26:54;2.67;;;2.47;;
42600;SDS011;28229;48.856;9.088;2022-08-14T08:29:21;2.50;;;2.28;;
42600;SDS011;28229;48.856;9.088;2022-08-14T08:31:49;3.00;;;2.20;;
42600;SDS011;28229;48.856;9.088;2022-08-14T08:34:16;3.97;;;2.40;;
42600;SDS011;28229;48.856;9.088;2022-08-14T08:36:43;2.40;;;2.30;;
42600;SDS011;28229;48.856;9.088;2022-08-14T08:39:10;2.10;;;2.00;;
42600;SDS011;28229;48.856;9.088;2022-08-14T08:41:43;2.30;;;2.20;;
42600;SDS011;28229;48.856;9.088;2022-08-14T08:44:12;2.17;;;2.08;;
42600;SDS011;28229;48.856;9.088;2022-08-14T08:46:39;2.05;;;1.92;;
42600;SDS011;28229;48.856;9.088;2022-08-14T08:49:07;2.25;;;2.10;;
42600;SDS011;28229;48.856;9.088;2022-08-14T08:51:36;2.20;;;2.00;;
42600;SDS011;28229;48.856;9.088;2022-08-14T08:54:07;3.15;;;2.05;;
42600;SDS011;28229;48.856;9.088;2022-08-14T08:56:40;2.10;;;1.90;;
42600;SDS011;28229;48.856;9.088;2022-08-14T08:59:23;2.20;;;2.00;;
42600;SDS011;28229;48.856;9.088;2022-08-14T09:01:51;2.30;;;2.20;;
42600;SDS011;28229;48.856;9.088;2022-08-14T09:04:25;2.15;;;1.95;;
42600;SDS011;28229;48.856;9.088;2022-08-14T09:06:52;1.95;;;1.85;;
42600;SDS011;28229;48.856;9.088;2022-08-14T09:09:37;2.42;;;1.98;;
42600;SDS011;28229;48.856;9.088;2022-08-14T09:12:16;2.50;;;2.30;;
42600;SDS011;28229;48.856;9.088;2022-08-14T09:14:43;3.08;;;2.45;;
42600;SDS011;28229;48.856;9.088;2022-08-14T09:17:09;2.70;;;2.50;;
42600;SDS011;28229;48.856;9.088;2022-08-14T09:19:37;2.47;;;2.17;;
42600;SDS011;28229;48.856;9.088;2022-08-14T09:22:07;2.60;;;2.40;;
42600;SDS011;28229;48.856;9.088;2022-08-14T09:24:35;2.45;;;2.35;;
42600;SDS011;28229;48.856;9.088;2022-08-14T09:27:01;2.38;;;2.28;;
42600;SDS011;28229;48.856;9.088;2022-08-14T09:29:27;3.03;;;2.35;;
42600;SDS011;28229;48.856;9.088;2022-08-14T09:31:54;2.70;;;2.20;;
42600;SDS011;28229;48.856;9.088;2022-08-14T09:45:14;2.38;;;2.20;;
42600;SDS011;28229;48.856;9.088;2022-08-14T09:47:58;2.60;;;2.40;;
42600;SDS011;28229;48.856;9.088;2022-08-14T09:50:25;2.40;;;2.20;;
42600;SDS011;28229;48.856;9.088;2022-08-14T09:52:59;3.25;;;2.53;;
42600;SDS011;28229;48.856;9.088;2022-08-14T09:55:28;2.45;;;2.35;;
42600;SDS011;28229;48.856;9.088;2022-08-14T09:58:14;2.35;;;2.17;;
42600;SDS011;28229;48.856;9.088;2022-08-14T10:00:42;3.30;;;2.25;;
42600;SDS011;28229;48.856;9.088;2022-08-14T10:03:23;3.13;;;2.20;;
42600;SDS011;28229;48.856;9.088;2022-08-14T10:08:50;2.53;;;2.40;;
42600;SDS011;28229;48.856;9.088;2022-08-14T10:13:57;2.83;;;2.63;;
42600;SDS011;28229;48.856;9.088;2022-08-14T10:16:27;3.00;;;2.80;;
42600;SDS011;28229;48.856;9.088;2022-08-14T10:19:04;3.42;;;2.70;;
42600;SDS011;28229;48.856;9.088;2022-08-14T10:21:38;3.30;;;2.67;;
42600;SDS011;28229;48.856;9.088;2022-08-14T10:24:05;3.03;;;2.60;;
42600;SDS011;28229;48.856;9.088;2022-08-14T10:26:35;3.90;;;3.60;;
42600;SDS011;28229;48.856;9.088;2022-08-14T10:29:06;4.72;;;4.18;;
42600;SDS011;28229;48.856;9.088;2022-08-14T10:31:34;6.03;;;4.80;;
42600;SDS011;28229;48.856;9.088;2022-08-14T10:34:01;2.53;;;2.42;;
42600;SDS011;28229;48.856;9.088;2022-08-14T10:36:32;3.38;;;3.17;;
42600;SDS011;28229;48.856;9.088;2022-08-14T10:39:02;5.72;;;3.00;;
42600;SDS011;28229;48.856;9.088;2022-08-14T10:41:41;3.40;;;3.10;;
42600;SDS011;28229;48.856;9.088;2022-08-14T10:49:20;2.90;;;2.60;;
42600;SDS011;28229;48.856;9.088;2022-08-14T10:54:47;3.08;;;2.67;;
42600;SDS011;28229;48.856;9.088;2022-08-14T10:59:48;2.92;;;2.65;;
42600;SDS011;28229;48.856;9.088;2022-08-14T11:02:31;3.00;;;2.80;;
42600;SDS011;28229;48.856;9.088;2022-08-14T11:07:33;3.22;;;2.92;;
42600;SDS011;28229;48.856;9.088;2022-08-14T11:10:04;2.88;;;2.67;;
42600;SDS011;28229;48.856;9.088;2022-08-14T11:12:42;3.10;;;2.70;;
42600;SDS011;28229;48.856;9.088;2022-08-14T11:15:18;2.90;;;2.70;;
42600;SDS011;28229;48.856;9.088;2022-08-14T11:17:46;3.20;;;3.00;;
42600;SDS011;28229;48.856;9.088;2022-08-14T11:20:14;3.45;;;2.70;;
42600;SDS011;28229;48.856;9.088;2022-08-14T11:22:41;2.90;;;2.70;;
42600;SDS011;28229;48.856;9.088;2022-08-14T11:25:14;2.83;;;2.70;;
42600;SDS011;28229;48.856;9.088;2022-08-14T11:27:43;3.15;;;2.95;;
42600;SDS011;28229;48.856;9.088;2022-08-14T11:30:12;3.25;;;2.95;;
42600;SDS011;28229;48.856;9.088;2022-08-14T11:32:42;3.30;;;3.03;;
42600;SDS011;28229;48.856;9.088;2022-08-14T11:35:12;4.05;;;2.80;;
42600;SDS011;28229;48.856;9.088;2022-08-14T11:40:21;3.17;;;2.80;;
42600;SDS011;28229;48.856;9.088;2022-08-14T11:42:49;2.72;;;2.58;;
42600;SDS011;28229;48.856;9.088;2022-08-14T11:45:21;3.00;;;2.80;;
42600;SDS011;28229;48.856;9.088;2022-08-14T11:47:48;2.75;;;2.40;;
42600;SDS011;28229;48.856;9.088;2022-08-14T11:50:19;2.95;;;2.75;;
42600;SDS011;28229;48.856;9.088;2022-08-14T11:52:49;3.30;;;2.83;;
42600;SDS011;28229;48.856;9.088;2022-08-14T11:55:21;2.80;;;2.60;;
42600;SDS011;28229;48.856;9.088;2022-08-14T11:57:57;2.80;;;2.70;;
42600;SDS011;28229;48.856;9.088;2022-08-14T12:00:28;2.92;;;2.72;;
42600;SDS011;28229;48.856;9.088;2022-08-14T12:02:56;3.00;;;2.63;;
42600;SDS011;28229;48.856;9.088;2022-08-14T12:05:27;2.58;;;2.25;;
42600;SDS011;28229;48.856;9.088;2022-08-14T12:07:56;2.85;;;2.60;;
42600;SDS011;28229;48.856;9.088;2022-08-14T12:10:22;3.08;;;2.88;;
42600;SDS011;28229;48.856;9.088;2022-08-14T12:12:48;2.63;;;2.42;;
42600;SDS011;28229;48.856;9.088;2022-08-14T12:15:29;2.80;;;2.60;;
42600;SDS011;28229;48.856;9.088;2022-08-14T12:17:57;3.42;;;2.42;;
42600;SDS011;28229;48.856;9.088;2022-08-14T12:20:32;2.28;;;2.17;;
42600;SDS011;28229;48.856;9.088;2022-08-14T12:23:04;2.83;;;2.63;;
42600;SDS011;28229;48.856;9.088;2022-08-14T12:25:32;2.70;;;2.50;;
42600;SDS011;28229;48.856;9.088;2022-08-14T12:28:00;3.05;;;2.53;;
42600;SDS011;28229;48.856;9.088;2022-08-14T12:32:58;2.78;;;2.40;;
42600;SDS011;28229;48.856;9.088;2022-08-14T12:35:37;2.60;;;2.40;;
42600;SDS011;28229;48.856;9.088;2022-08-14T12:38:05;2.70;;;2.60;;
42600;SDS011;28229;48.856;9.088;2022-08-14T12:40:31;2.70;;;2.60;;
42600;SDS011;28229;48.856;9.088;2022-08-14T12:43:00;2.88;;;2.58;;
42600;SDS011;28229;48.856;9.088;2022-08-14T12:45:28;2.70;;;2.60;;
42600;SDS011;28229;48.856;9.088;2022-08-14T12:48:01;2.72;;;2.53;;
42600;SDS011;28229;48.856;9.088;2022-08-14T12:50:39;2.42;;;2.33;;
42600;SDS011;28229;48.856;9.088;2022-08-14T12:53:10;2.65;;;2.45;;
42600;SDS011;28229;48.856;9.088;2022-08-14T12:55:39;2.60;;;2.38;;
42600;SDS011;28229;48.856;9.088;2022-08-14T12:58:07;2.90;;;2.70;;
42600;SDS011;28229;48.856;9.088;2022-08-14T13:00:35;2.58;;;2.38;;
42600;SDS011;28229;48.856;9.088;2022-08-14T13:03:03;2.60;;;2.40;;
42600;SDS011;28229;48.856;9.088;2022-08-14T13:05:30;3.25;;;2.50;;
42600;SDS011;28229;48.856;9.088;2022-08-14T13:07:58;2.45;;;2.35;;
42600;SDS011;28229;48.856;9.088;2022-08-14T13:10:30;3.60;;;2.28;;
42600;SDS011;28229;48.856;9.088;2022-08-14T13:12:57;2.63;;;2.50;;
42600;SDS011;28229;48.856;9.088;2022-08-14T13:15:24;2.17;;;2.08;;
42600;SDS011;28229;48.856;9.088;2022-08-14T13:17:52;2.22;;;2.13;;
42600;SDS011;28229;48.856;9.088;2022-08-14T13:20:23;2.30;;;2.05;;
42600;SDS011;28229;48.856;9.088;2022-08-14T13:22:50;2.85;;;2.30;;
42600;SDS011;28229;48.856;9.088;2022-08-14T13:25:18;2.25;;;2.15;;
42600;SDS011;28229;48.856;9.088;2022-08-14T13:27:54;2.38;;;2.28;;
42600;SDS011;28229;48.856;9.088;2022-08-14T13:30:24;2.42;;;2.33;;
42600;SDS011;28229;48.856;9.088;2022-08-14T13:32:52;2.35;;;2.25;;
42600;SDS011;28229;48.856;9.088;2022-08-14T13:35:19;2.30;;;2.20;;
42600;SDS011;28229;48.856;9.088;2022-08-14T13:37:46;2.40;;;2.30;;
42600;SDS011;28229;48.856;9.088;2022-08-14T13:40:15;3.55;;;2.20;;
42600;SDS011;28229;48.856;9.088;2022-08-14T13:42:43;2.20;;;2.10;;
42600;SDS011;28229;48.856;9.088;2022-08-14T13:45:10;2.47;;;2.35;;
42600;SDS011;28229;48.856;9.088;2022-08-14T13:47:37;2.30;;;2.20;;
42600;SDS011;28229;48.856;9.088;2022-08-14T13:50:05;2.15;;;2.05;;
42600;SDS011;28229;48.856;9.088;2022-08-14T13:52:34;2.15;;;2.05;;
42600;SDS011;28229;48.856;9.088;2022-08-14T13:55:07;2.20;;;2.10;;
42600;SDS011;28229;48.856;9.088;2022-08-14T13:57:34;2.38;;;1.90;;
42600;SDS011;28229;48.856;9.088;2022-08-14T14:00:07;2.28;;;2.17;;
42600;SDS011;28229;48.856;9.088;2022-08-14T14:02:41;2.00;;;1.90;;
42600;SDS011;28229;48.856;9.088;2022-08-14T14:05:12;2.08;;;1.85;;
42600;SDS011;28229;48.856;9.088;2022-08-14T14:07:44;2.10;;;2.00;;
42600;SDS011;28229;48.856;9.088;2022-08-14T14:10:12;1.92;;;1.83;;
42600;SDS011;28229;48.856;9.088;2022-08-14T14:12:39;2.15;;;2.05;;
42600;SDS011;28229;48.856;9.088;2022-08-14T14:15:06;2.20;;;1.77;;
42600;SDS011;28229;48.856;9.088;2022-08-14T14:17:35;2.08;;;1.98;;
42600;SDS011;28229;48.856;9.088;2022-08-14T14:20:02;4.40;;;2.20;;
42600;SDS011;28229;48.856;9.088;2022-08-14T14:22:29;1.85;;;1.75;;
42600;SDS011;28229;48.856;9.088;2022-08-14T14:24:56;2.20;;;2.00;;
42600;SDS011;28229;48.856;9.088;2022-08-14T14:27:21;2.45;;;2.00;;
42600;SDS011;28229;48.856;9.088;2022-08-14T14:29:51;1.73;;;1.70;;
42600;SDS011;28229;48.856;9.088;2022-08-14T14:32:22;2.08;;;1.80;;
42600;SDS011;28229;48.856;9.088;2022-08-14T14:34:53;2.28;;;1.80;;
42600;SDS011;28229;48.856;9.088;2022-08-14T14:37:19;1.98;;;1.80;;
42600;SDS011;28229;48.856;9.088;2022-08-14T14:39:46;1.70;;;1.70;;
42600;SDS011;28229;48.856;9.088;2022-08-14T14:42:14;1.77;;;1.67;;
42600;SDS011;28229;48.856;9.088;2022-08-14T14:44:43;2.33;;;1.88;;
42600;SDS011;28229;48.856;9.088;2022-08-14T14:47:12;2.00;;;1.90;;
42600;SDS011;28229;48.856;9.088;2022-08-14T14:49:41;2.00;;;1.90;;
42600;SDS011;28229;48.856;9.088;2022-08-14T14:52:08;1.80;;;1.70;;
42600;SDS011;28229;48.856;9.088;2022-08-14T14:54:34;1.80;;;1.70;;
42600;SDS011;28229;48.856;9.088;2022-08-14T14:57:01;2.05;;;1.95;;
42600;SDS011;28229;48.856;9.088;2022-08-14T14:59:31;1.95;;;1.85;;
42600;SDS011;28229;48.856;9.088;2022-08-14T15:01:59;1.98;;;1.88;;
42600;SDS011;28229;48.856;9.088;2022-08-14T15:04:31;2.97;;;2.00;;
42600;SDS011;28229;48.856;9.088;2022-08-14T15:07:00;2.20;;;2.10;;
42600;SDS011;28229;48.856;9.088;2022-08-14T15:09:27;2.00;;;1.90;;
42600;SDS011;28229;48.856;9.088;2022-08-14T15:11:53;2.90;;;2.30;;
42600;SDS011;28229;48.856;9.088;2022-08-14T15:14:19;2.13;;;1.92;;
42600;SDS011;28229;48.856;9.088;2022-08-14T15:16:45;2.67;;;2.00;;
42600;SDS011;28229;48.856;9.088;2022-08-14T15:19:14;1.95;;;1.85;;
42600;SDS011;28229;48.856;9.088;2022-08-14T15:21:41;2.00;;;1.90;;
42600;SDS011;28229;48.856;9.088;2022-08-14T15:24:07;1.88;;;1.77;;
42600;SDS011;28229;48.856;9.088;2022-08-14T15:26:33;2.00;;;1.85;;
42600;SDS011;28229;48.856;9.088;2022-08-14T15:29:03;1.90;;;1.80;;
42600;SDS011;28229;48.856;9.088;2022-08-14T15:31:31;2.20;;;2.10;;
42600;SDS011;28229;48.856;9.088;2022-08-14T15:33:57;2.00;;;1.88;;
42600;SDS011;28229;48.856;9.088;2022-08-14T15:36:36;2.15;;;1.90;;
42600;SDS011;28229;48.856;9.088;2022-08-14T15:39:03;2.17;;;1.92;;
42600;SDS011;28229;48.856;9.088;2022-08-14T15:41:29;1.90;;;1.80;;